Time;durP1;ratioP1;P1;durP2;ratioP2;P2;SDS_P1;SDS_P2;PMS_P1;PMS_P2;Temp;Humidity;BMP_temperature;BMP_pressure;BME280_temperature;BME280_humidity;BME280_pressure;Samples;Min_cycle;Max_cycle;Signal;HPM_P1;HPM_P2
2023/04/02 00:00:04;;;;;;;;;;;;;;;10.63;61.64;98748.66;5091818;28;19913;-41
2023/04/02 00:02:30;;;;;;;;;;;;;;;10.82;61.89;98736.09;5092396;28;19911;-41
2023/04/02 00:05:18;;;;;;;;;;;;;;;10.71;61.58;98745.66;5092432;28;19920;-41
2023/04/02 00:07:47;;;;;;;;;;;;;;;10.88;61.20;98743.16;5092659;28;20459;-41
2023/04/02 00:10:31;;;;;;;;;;;;;;;10.91;61.08;98748.03;5092538;28;19923;-41
2023/04/02 00:13:00;;;;;;;;;;;;;;;10.61;61.58;98753.41;5092344;28;19980;-42
2023/04/02 00:15:26;;;;;;;;;;;;;;;10.60;61.83;98739.28;5092414;28;20445;-41
2023/04/02 00:17:51;;;;;;;;;;;;;;;10.37;62.87;98748.81;5092332;28;19955;-41
2023/04/02 00:20:18;;;;;;;;;;;;;;;10.53;62.02;98741.25;5092413;28;19999;-41
2023/04/02 00:22:44;;;;;;;;;;;;;;;10.39;62.87;98745.13;5092091;28;20373;-41
2023/04/02 00:25:12;;;;;;;;;;;;;;;10.10;63.59;98745.66;5092332;28;19923;-41
2023/04/02 00:27:37;;;;;;;;;;;;;;;10.40;62.31;98744.09;5092487;28;19919;-41
2023/04/02 00:30:03;;;;;;;;;;;;;;;10.28;63.02;98747.50;5090686;28;20239;-41
2023/04/02 00:32:32;;;;;;;;;;;;;;;10.12;63.37;98746.25;5092081;28;19939;-40
2023/04/02 00:34:58;;;;;;;;;;;;;;;10.23;63.52;98751.84;5092118;28;19916;-41
2023/04/02 00:37:26;;;;;;;;;;;;;;;10.24;63.01;98743.63;5091960;28;19916;-41
2023/04/02 00:40:05;;;;;;;;;;;;;;;10.49;61.64;98751.53;5092140;28;19946;-41
2023/04/02 00:42:32;;;;;;;;;;;;;;;10.53;62.40;98749.22;5092007;28;19912;-41
2023/04/02 00:44:58;;;;;;;;;;;;;;;10.69;61.41;98750.41;5091792;28;19958;-41
2023/04/02 00:47:25;;;;;;;;;;;;;;;10.76;61.50;98759.91;5091756;28;19955;-41
2023/04/02 00:50:06;;;;;;;;;;;;;;;10.88;60.52;98756.47;5091795;28;19936;-41
2023/04/02 00:52:32;;;;;;;;;;;;;;;10.67;61.73;98763.13;5091817;28;19912;-41
2023/04/02 00:55:02;;;;;;;;;;;;;;;10.48;62.85;98765.03;5091675;28;19920;-41
2023/04/02 00:57:28;;;;;;;;;;;;;;;10.53;62.03;98763.31;5091524;28;20328;-41
2023/04/02 00:59:58;;;;;;;;;;;;;;;10.49;62.73;98756.00;5091632;28;19962;-41
2023/04/02 01:02:28;;;;;;;;;;;;;;;10.33;62.97;98750.28;5091573;28;20002;-40
2023/04/02 01:04:55;;;;;;;;;;;;;;;10.40;62.70;98746.75;5091753;28;19977;-41
2023/04/02 01:07:30;;;;;;;;;;;;;;;10.41;63.21;98749.16;5091756;28;20338;-42
2023/04/02 01:10:10;;;;;;;;;;;;;;;10.22;62.75;98756.34;5091554;28;19950;-42
2023/04/02 01:12:35;;;;;;;;;;;;;;;10.29;62.99;98756.28;5091480;28;19930;-42
2023/04/02 01:15:01;;;;;;;;;;;;;;;10.41;62.41;98762.47;5091672;28;19916;-41
2023/04/02 01:17:32;;;;;;;;;;;;;;;10.43;62.31;98763.03;5091581;28;20345;-41
2023/04/02 01:20:07;;;;;;;;;;;;;;;10.28;62.71;98770.59;5091448;28;19912;-42
2023/04/02 01:22:41;;;;;;;;;;;;;;;10.33;62.69;98762.78;5091058;28;19926;-41
2023/04/02 01:25:08;;;;;;;;;;;;;;;10.12;62.45;98737.47;5091285;28;19935;-41
2023/04/02 01:27:46;;;;;;;;;;;;;;;10.33;62.63;98768.91;5091010;28;19912;-42
2023/04/02 01:30:13;;;;;;;;;;;;;;;10.26;62.89;98762.03;5090927;28;20275;-42
2023/04/02 01:32:39;;;;;;;;;;;;;;;10.40;62.13;98763.50;5090815;28;19918;-42
2023/04/02 01:35:06;;;;;;;;;;;;;;;10.35;62.06;98766.03;5090929;28;20298;-42
2023/04/02 01:37:35;;;;;;;;;;;;;;;10.32;62.08;98761.97;5090751;28;20446;-41
2023/04/02 01:40:27;;;;;;;;;;;;;;;10.29;61.67;98766.91;5090269;28;19919;-42
2023/04/02 01:43:10;;;;;;;;;;;;;;;10.30;61.89;98766.72;5090743;28;19916;-41
2023/04/02 01:45:36;;;;;;;;;;;;;;;10.48;61.59;98770.38;5090574;28;20145;-42
2023/04/02 01:48:04;;;;;;;;;;;;;;;10.22;61.92;98777.63;5090805;28;19912;-41
2023/04/02 01:50:35;;;;;;;;;;;;;;;10.52;60.72;98771.53;5090137;28;19916;-41
2023/04/02 01:53:06;;;;;;;;;;;;;;;10.53;61.22;98779.28;5090519;28;20003;-41
2023/04/02 01:55:34;;;;;;;;;;;;;;;10.51;61.19;98772.59;5090857;28;19951;-41
2023/04/02 01:58:00;;;;;;;;;;;;;;;10.44;61.37;98775.31;5090487;28;19912;-41
2023/04/02 02:00:29;;;;;;;;;;;;;;;10.41;60.77;98769.63;5090898;28;20047;-41
2023/04/02 02:02:54;;;;;;;;;;;;;;;10.53;60.47;98763.31;5089988;28;19978;-41
2023/04/02 02:05:21;;;;;;;;;;;;;;;10.17;61.28;98772.97;5090036;28;20384;-41
2023/04/02 02:07:47;;;;;;;;;;;;;;;10.30;60.93;98760.53;5090054;28;20035;-41
2023/04/02 02:10:14;;;;;;;;;;;;;;;10.47;60.66;98763.41;5090093;28;20011;-41
2023/04/02 02:12:40;;;;;;;;;;;;;;;10.72;59.72;98760.59;5089869;28;19912;-41
2023/04/02 02:15:16;;;;;;;;;;;;;;;10.60;59.58;98755.22;5089880;28;20537;-41
2023/04/02 02:17:41;;;;;;;;;;;;;;;10.66;59.56;98750.84;5090071;28;20260;-41
2023/04/02 02:20:11;;;;;;;;;;;;;;;10.63;59.83;98754.00;5090141;28;19912;-41
2023/04/02 02:22:38;;;;;;;;;;;;;;;10.73;59.17;98746.25;5089436;28;19916;-40
2023/04/02 02:25:06;;;;;;;;;;;;;;;10.54;60.46;98741.00;5090067;28;19923;-41
2023/04/02 02:27:46;;;;;;;;;;;;;;;10.28;60.70;98742.16;5090335;28;19916;-41
2023/04/02 02:30:15;;;;;;;;;;;;;;;10.18;61.30;98739.22;5090710;28;19923;-41
2023/04/02 02:32:45;;;;;;;;;;;;;;;10.33;60.87;98738.84;5090643;28;20341;-41
2023/04/02 02:35:15;;;;;;;;;;;;;;;10.15;61.52;98748.47;5090635;28;19912;-41
2023/04/02 02:37:43;;;;;;;;;;;;;;;10.53;60.00;98743.91;5090572;28;19919;-41
2023/04/02 02:40:12;;;;;;;;;;;;;;;10.68;59.11;98749.59;5090626;28;19912;-42
2023/04/02 02:42:45;;;;;;;;;;;;;;;10.74;59.08;98753.19;5090588;28;19919;-42
2023/04/02 02:45:16;;;;;;;;;;;;;;;10.83;58.60;98748.34;5090638;28;19912;-42
2023/04/02 02:47:43;;;;;;;;;;;;;;;10.71;59.22;98754.44;5090666;28;19926;-42
2023/04/02 02:50:17;;;;;;;;;;;;;;;10.68;58.82;98762.06;5090327;28;19952;-42
2023/04/02 02:52:45;;;;;;;;;;;;;;;10.69;59.24;98759.19;5090452;28;19934;-42
2023/04/02 02:55:17;;;;;;;;;;;;;;;11.00;58.14;98749.28;5090534;28;19919;-42
2023/04/02 02:57:46;;;;;;;;;;;;;;;11.20;57.99;98748.16;5090525;28;19916;-42
2023/04/02 03:00:14;;;;;;;;;;;;;;;11.07;58.11;98744.66;5090473;28;20441;-42
2023/04/02 03:02:40;;;;;;;;;;;;;;;11.18;58.01;98753.72;5090267;28;19948;-40
2023/04/02 03:05:06;;;;;;;;;;;;;;;11.14;57.54;98752.56;5090314;28;19951;-41
2023/04/02 03:07:32;;;;;;;;;;;;;;;11.08;57.83;98761.44;5090168;28;19916;-41
2023/04/02 03:10:16;;;;;;;;;;;;;;;10.80;58.92;98759.47;5090301;28;19916;-41
2023/04/02 03:12:49;;;;;;;;;;;;;;;11.00;57.81;98751.16;5090375;28;19908;-41
2023/04/02 03:15:34;;;;;;;;;;;;;;;10.96;58.48;98750.78;5090538;28;19918;-41
2023/04/02 03:18:31;;;;;;;;;;;;;;;11.06;58.73;98758.19;5090570;28;19912;-41
2023/04/02 03:21:00;;;;;;;;;;;;;;;10.84;59.46;98758.75;5067164;28;19923;-41
2023/04/02 03:23:33;;;;;;;;;;;;;;;10.97;59.52;98755.09;5090137;28;19924;-41
2023/04/02 03:26:01;;;;;;;;;;;;;;;11.29;58.78;98752.06;5090474;28;19989;-41
2023/04/02 03:28:29;;;;;;;;;;;;;;;10.98;58.98;98761.22;5090551;28;20295;-42
2023/04/02 03:31:10;;;;;;;;;;;;;;;10.83;60.84;98767.78;5090079;28;19916;-41
2023/04/02 03:33:39;;;;;;;;;;;;;;;10.60;62.22;98771.19;5089714;28;19912;-41
2023/04/02 03:36:27;;;;;;;;;;;;;;;10.75;61.76;98776.09;5093043;28;19925;-42
2023/04/02 03:39:08;;;;;;;;;;;;;;;10.67;62.16;98777.25;5094009;28;19916;-42
2023/04/02 03:41:56;;;;;;;;;;;;;;;10.54;62.40;98786.22;5093777;28;20014;-37
2023/04/02 03:44:25;;;;;;;;;;;;;;;10.44;63.13;98783.31;5088144;28;19923;-37
2023/04/02 03:47:00;;;;;;;;;;;;;;;10.32;63.92;98785.13;5093794;28;20309;-36
2023/04/02 03:49:25;;;;;;;;;;;;;;;10.20;64.28;98789.53;5093664;28;19916;-37
2023/04/02 03:52:10;;;;;;;;;;;;;;;10.17;64.66;98794.25;5093522;28;20311;-37
2023/04/02 03:54:36;;;;;;;;;;;;;;;10.36;64.38;98784.44;5093549;28;19912;-37
2023/04/02 03:57:01;;;;;;;;;;;;;;;10.44;63.43;98779.84;5093196;28;20416;-36
2023/04/02 03:59:33;;;;;;;;;;;;;;;10.58;62.73;98778.59;5093700;28;19912;-36
2023/04/02 04:02:01;;;;;;;;;;;;;;;10.48;63.47;98773.03;5093233;28;19912;-37
2023/04/02 04:04:28;;;;;;;;;;;;;;;10.59;62.75;98779.44;5093255;28;19912;-36
2023/04/02 04:06:55;;;;;;;;;;;;;;;10.53;62.46;98784.59;5093711;28;19959;-36
2023/04/02 04:09:31;;;;;;;;;;;;;;;10.28;63.63;98786.53;5093400;28;19931;-36
2023/04/02 04:12:19;;;;;;;;;;;;;;;10.37;62.96;98782.56;5093513;28;19916;-36
2023/04/02 04:14:50;;;;;;;;;;;;;;;10.29;63.95;98781.00;5087681;28;19923;-36
2023/04/02 04:17:23;;;;;;;;;;;;;;;10.57;62.81;98785.78;5093377;28;19940;-38
2023/04/02 04:20:11;;;;;;;;;;;;;;;10.66;62.23;98783.63;5093463;28;19973;-42
2023/04/02 04:22:37;;;;;;;;;;;;;;;10.50;62.43;98785.06;5087576;28;19920;-43
2023/04/02 04:25:06;;;;;;;;;;;;;;;10.22;62.94;98784.78;5093364;28;19923;-43
2023/04/02 04:27:41;;;;;;;;;;;;;;;10.68;61.15;98786.84;5093443;28;19935;-42
2023/04/02 04:30:09;;;;;;;;;;;;;;;10.27;61.71;98793.72;5092789;28;19920;-42
2023/04/02 04:32:41;;;;;;;;;;;;;;;10.57;61.66;98793.75;5093271;28;19920;-43
2023/04/02 04:35:25;;;;;;;;;;;;;;;10.64;61.55;98799.00;5093125;28;19926;-42
2023/04/02 04:37:58;;;;;;;;;;;;;;;10.61;61.11;98799.44;5093078;28;20046;-42
2023/04/02 04:40:27;;;;;;;;;;;;;;;11.01;60.25;98796.19;5092672;28;19916;-42
2023/04/02 04:42:54;;;;;;;;;;;;;;;10.85;60.53;98797.66;5092645;28;19912;-42
2023/04/02 04:45:19;;;;;;;;;;;;;;;10.95;60.83;98795.25;5092170;28;19969;-42
2023/04/02 04:47:51;;;;;;;;;;;;;;;10.63;60.83;98796.56;5092643;28;19916;-42
2023/04/02 04:50:33;;;;;;;;;;;;;;;10.79;61.06;98795.88;5089866;28;19951;-42
2023/04/02 04:53:05;;;;;;;;;;;;;;;10.83;60.97;98793.59;5090209;28;19991;-42
2023/04/02 04:55:36;;;;;;;;;;;;;;;10.84;60.70;98798.69;5092528;28;19912;-42
2023/04/02 04:58:17;;;;;;;;;;;;;;;11.04;59.65;98802.88;5092385;28;19912;-42
2023/04/02 05:00:48;;;;;;;;;;;;;;;11.06;59.37;98806.13;5092706;28;20010;-42
2023/04/02 05:03:19;;;;;;;;;;;;;;;11.37;58.08;98805.00;5092603;28;19916;-42
2023/04/02 05:05:45;;;;;;;;;;;;;;;11.35;58.46;98805.25;5092391;28;19919;-42
2023/04/02 05:08:20;;;;;;;;;;;;;;;11.31;57.81;98806.75;5092398;28;19912;-42
2023/04/02 05:10:51;;;;;;;;;;;;;;;11.29;57.56;98819.50;5089640;28;19916;-42
2023/04/02 05:13:22;;;;;;;;;;;;;;;11.52;57.51;98815.22;5092007;28;19946;-42
2023/04/02 05:16:03;;;;;;;;;;;;;;;11.25;57.89;98812.16;5089206;28;19912;-42
2023/04/02 05:18:52;;;;;;;;;;;;;;;11.42;57.66;98814.97;5071944;28;19919;-42
2023/04/02 05:21:20;;;;;;;;;;;;;;;11.23;58.42;98825.75;5068891;28;19916;-42
2023/04/02 05:23:50;;;;;;;;;;;;;;;11.61;57.01;98819.13;5071871;28;20388;-42
2023/04/02 05:26:17;;;;;;;;;;;;;;;11.63;56.57;98830.38;5071512;28;19993;-42
2023/04/02 05:28:49;;;;;;;;;;;;;;;11.65;56.62;98819.47;5072021;28;19912;-42
2023/04/02 05:31:18;;;;;;;;;;;;;;;11.59;56.57;98829.22;5071540;28;19916;-42
2023/04/02 05:33:47;;;;;;;;;;;;;;;11.71;56.37;98824.69;5071595;28;19913;-42
2023/04/02 05:36:21;;;;;;;;;;;;;;;11.79;55.89;98825.41;5071650;28;20365;-42
2023/04/02 05:38:47;;;;;;;;;;;;;;;11.96;55.92;98837.00;5071675;28;19940;-43
2023/04/02 05:41:15;;;;;;;;;;;;;;;12.05;55.53;98826.75;5071758;28;19913;-43
2023/04/02 05:43:44;;;;;;;;;;;;;;;12.12;55.69;98836.25;5071640;28;19939;-42
2023/04/02 05:46:31;;;;;;;;;;;;;;;12.13;55.95;98837.88;5071609;28;19920;-42
2023/04/02 05:48:58;;;;;;;;;;;;;;;12.22;55.85;98833.00;5071488;28;19924;-43
2023/04/02 05:51:26;;;;;;;;;;;;;;;12.62;54.52;98831.31;5071260;28;19927;-43
2023/04/02 05:53:54;;;;;;;;;;;;;;;12.77;54.54;98834.28;5071505;28;19912;-43
2023/04/02 05:56:22;;;;;;;;;;;;;;;13.03;52.91;98838.22;5071255;28;20599;-42
2023/04/02 05:59:03;;;;;;;;;;;;;;;12.80;53.30;98841.00;5089546;28;19916;-43
2023/04/02 06:01:28;;;;;;;;;;;;;;;13.03;52.16;98838.22;5091454;28;19995;-42
2023/04/02 06:04:05;;;;;;;;;;;;;;;13.04;52.59;98842.50;5091179;28;20344;-42
2023/04/02 06:06:42;;;;;;;;;;;;;;;13.33;51.74;98847.81;5091013;28;19954;-42
2023/04/02 06:09:28;;;;;;;;;;;;;;;13.75;50.28;98852.72;5090573;28;20006;-43
2023/04/02 06:12:07;;;;;;;;;;;;;;;13.88;49.28;98848.88;5089985;28;20356;-43
2023/04/02 06:14:32;;;;;;;;;;;;;;;13.80;49.18;98852.78;5090078;28;19912;-43
2023/04/02 06:16:57;;;;;;;;;;;;;;;13.89;49.07;98851.28;5091284;28;19969;-43
2023/04/02 06:19:26;;;;;;;;;;;;;;;13.45;49.83;98853.88;5090501;28;19920;-43
2023/04/02 06:21:56;;;;;;;;;;;;;;;13.81;49.51;98850.94;5090099;28;20003;-42
2023/04/02 06:24:24;;;;;;;;;;;;;;;14.10;48.46;98859.59;5070429;28;19920;-42
2023/04/02 06:26:52;;;;;;;;;;;;;;;13.99;49.42;98853.31;5070209;28;19920;-42
2023/04/02 06:29:32;;;;;;;;;;;;;;;13.89;49.50;98863.88;5069991;28;19962;-43
2023/04/02 06:32:01;;;;;;;;;;;;;;;14.06;49.31;98867.31;5088966;28;19916;-42
2023/04/02 06:34:27;;;;;;;;;;;;;;;14.48;48.52;98866.75;5090421;28;20024;-42
2023/04/02 06:36:57;;;;;;;;;;;;;;;14.44;50.70;98878.22;5090548;28;19912;-42
2023/04/02 06:39:24;;;;;;;;;;;;;;;14.74;48.78;98876.97;5090758;28;19912;-43
2023/04/02 06:42:00;;;;;;;;;;;;;;;14.98;47.72;98893.56;5090268;28;20583;-43
2023/04/02 06:44:28;;;;;;;;;;;;;;;14.91;46.70;98882.22;5090156;28;19912;-42
2023/04/02 06:46:56;;;;;;;;;;;;;;;14.78;46.29;98886.13;5090250;28;19912;-41
2023/04/02 06:49:22;;;;;;;;;;;;;;;15.14;46.02;98881.94;5090077;28;19913;-42
2023/04/02 06:51:49;;;;;;;;;;;;;;;14.99;46.90;98884.47;5089861;28;19946;-43
2023/04/02 06:54:16;;;;;;;;;;;;;;;14.69;46.11;98880.41;5090092;28;19922;-43
2023/04/02 06:56:50;;;;;;;;;;;;;;;14.70;46.52;98887.38;5089668;28;19919;-43
2023/04/02 06:59:15;;;;;;;;;;;;;;;14.95;46.23;98883.34;5089771;28;20269;-43
2023/04/02 07:01:47;;;;;;;;;;;;;;;14.99;45.51;98889.81;5090026;28;19969;-47
2023/04/02 07:04:13;;;;;;;;;;;;;;;15.25;45.43;98897.03;5089927;28;20309;-47
2023/04/02 07:06:38;;;;;;;;;;;;;;;14.89;45.19;98889.69;5090161;28;19953;-47
2023/04/02 07:09:04;;;;;;;;;;;;;;;15.08;45.45;98892.84;5091233;28;20364;-46
2023/04/02 07:11:29;;;;;;;;;;;;;;;15.33;45.15;98898.44;5093426;28;19916;-46
2023/04/02 07:13:54;;;;;;;;;;;;;;;15.59;45.23;98896.78;5094046;28;19912;-47
2023/04/02 07:16:21;;;;;;;;;;;;;;;15.75;44.29;98903.09;5093921;28;20352;-48
2023/04/02 07:18:47;;;;;;;;;;;;;;;15.74;42.43;98904.13;5093240;28;20092;-42
2023/04/02 07:21:13;;;;;;;;;;;;;;;15.81;42.71;98898.56;5093414;28;19972;-41
2023/04/02 07:23:38;;;;;;;;;;;;;;;15.76;43.54;98911.94;5092898;28;19928;-41
2023/04/02 07:26:04;;;;;;;;;;;;;;;16.11;42.75;98908.69;5092920;28;19924;-43
2023/04/02 07:28:29;;;;;;;;;;;;;;;15.90;43.61;98915.00;5092912;28;19912;-42
2023/04/02 07:30:55;;;;;;;;;;;;;;;15.89;42.99;98914.16;5092896;28;19916;-42
2023/04/02 07:33:22;;;;;;;;;;;;;;;15.59;43.48;98918.25;5092794;28;19957;-42
2023/04/02 07:35:48;;;;;;;;;;;;;;;15.47;44.47;98914.91;5092503;28;20386;-42
2023/04/02 07:38:13;;;;;;;;;;;;;;;15.64;42.87;98914.78;5092405;28;19936;-42
2023/04/02 07:40:39;;;;;;;;;;;;;;;15.77;43.78;98917.03;5092976;28;20252;-41
2023/04/02 07:43:04;;;;;;;;;;;;;;;16.09;44.01;98916.19;5092541;28;19969;-41
2023/04/02 07:45:30;;;;;;;;;;;;;;;16.76;42.62;98916.47;5092422;28;20319;-42
2023/04/02 07:47:55;;;;;;;;;;;;;;;16.46;41.32;98911.81;5092860;28;20345;-42
2023/04/02 07:50:21;;;;;;;;;;;;;;;16.06;40.73;98918.56;5092748;28;20400;-42
2023/04/02 07:52:46;;;;;;;;;;;;;;;16.11;41.17;98910.56;5092351;28;19968;-39
2023/04/02 07:55:13;;;;;;;;;;;;;;;16.99;40.58;98907.16;5092178;28;20007;-41
2023/04/02 07:57:40;;;;;;;;;;;;;;;17.22;39.82;98907.75;5092184;28;19923;-43
2023/04/02 08:00:08;;;;;;;;;;;;;;;17.46;38.76;98903.44;5092259;28;19912;-43
2023/04/02 08:02:34;;;;;;;;;;;;;;;16.54;39.27;98898.66;5092203;28;19912;-43
2023/04/02 08:05:00;;;;;;;;;;;;;;;17.05;40.04;98891.84;5092185;28;19916;-42
2023/04/02 08:07:26;;;;;;;;;;;;;;;17.84;38.56;98895.91;5090714;28;19912;-43
2023/04/02 08:09:51;;;;;;;;;;;;;;;17.09;38.92;98892.94;5092521;28;19923;-41
2023/04/02 08:12:16;;;;;;;;;;;;;;;17.50;37.89;98903.72;5092698;28;20003;-42
2023/04/02 08:14:42;;;;;;;;;;;;;;;17.32;38.33;98897.78;5091883;28;20380;-40
2023/04/02 08:17:07;;;;;;;;;;;;;;;18.11;37.33;98900.16;5091995;28;19955;-42
2023/04/02 08:19:33;;;;;;;;;;;;;;;18.49;36.33;98895.19;5091809;28;19912;-41
2023/04/02 08:21:59;;;;;;;;;;;;;;;18.19;36.70;98904.97;5091159;28;19942;-42
2023/04/02 08:24:24;;;;;;;;;;;;;;;17.65;37.63;98900.19;5091723;28;19931;-42
2023/04/02 08:26:52;;;;;;;;;;;;;;;17.60;37.35;98895.63;5091773;28;20080;-42
2023/04/02 08:29:17;;;;;;;;;;;;;;;18.23;35.79;98900.66;5090892;28;19923;-42
2023/04/02 08:31:42;;;;;;;;;;;;;;;17.50;36.62;98901.03;5091499;28;19920;-40
2023/04/02 08:34:08;;;;;;;;;;;;;;;17.42;36.71;98886.25;5091119;28;19912;-41
2023/04/02 08:36:35;;;;;;;;;;;;;;;17.97;36.07;98889.16;5091638;28;20038;-40
2023/04/02 08:39:00;;;;;;;;;;;;;;;19.22;34.58;98896.41;5091556;28;19919;-42
2023/04/02 08:41:26;;;;;;;;;;;;;;;18.88;34.89;98889.88;5091209;28;20315;-42
2023/04/02 08:43:52;;;;;;;;;;;;;;;18.61;34.43;98890.28;5089653;28;20024;-42
2023/04/02 08:46:20;;;;;;;;;;;;;;;18.53;34.64;98883.56;5091007;28;20324;-43
2023/04/02 08:48:48;;;;;;;;;;;;;;;19.72;32.97;98895.22;5090940;28;20002;-42
2023/04/02 08:51:27;;;;;;;;;;;;;;;19.34;32.53;98892.28;5090401;28;20340;-41
2023/04/02 08:53:58;;;;;;;;;;;;;;;19.22;33.06;98882.94;5090839;28;19913;-41
2023/04/02 08:56:26;;;;;;;;;;;;;;;19.51;32.53;98881.09;5091272;28;19919;-41
2023/04/02 08:59:02;;;;;;;;;;;;;;;20.61;30.81;98876.97;5091174;28;19943;-41
2023/04/02 09:01:43;;;;;;;;;;;;;;;20.30;31.52;98863.84;5090892;28;19968;-41
2023/04/02 09:04:17;;;;;;;;;;;;;;;19.89;31.78;98880.47;5090583;28;19916;-41
2023/04/02 09:06:43;;;;;;;;;;;;;;;20.16;31.38;98871.81;5089061;28;19916;-41
2023/04/02 09:09:10;;;;;;;;;;;;;;;20.37;30.70;98872.41;5091120;28;19912;-42
2023/04/02 09:11:40;;;;;;;;;;;;;;;20.78;30.34;98868.38;5091640;28;20026;-43
2023/04/02 09:14:13;;;;;;;;;;;;;;;21.27;29.42;98870.59;5091419;28;20006;-42
2023/04/02 09:16:46;;;;;;;;;;;;;;;21.79;28.79;98867.03;5091520;28;19920;-42
2023/04/02 09:19:15;;;;;;;;;;;;;;;21.39;29.67;98859.31;5089680;28;20470;-42
2023/04/02 09:21:42;;;;;;;;;;;;;;;21.38;29.66;98851.47;5090335;28;20044;-42
2023/04/02 09:24:12;;;;;;;;;;;;;;;21.66;29.32;98863.22;5090487;28;19924;-42
2023/04/02 09:26:37;;;;;;;;;;;;;;;21.85;29.33;98855.81;5091506;28;19920;-43
2023/04/02 09:29:05;;;;;;;;;;;;;;;22.40;28.74;98860.44;5091278;28;20280;-42
2023/04/02 09:31:36;;;;;;;;;;;;;;;22.70;28.59;98851.97;5090122;28;19939;-42
2023/04/02 09:34:21;;;;;;;;;;;;;;;23.28;27.92;98855.81;5090796;28;19917;-42
2023/04/02 09:36:47;;;;;;;;;;;;;;;22.75;28.46;98852.66;5090141;28;19916;-41
2023/04/02 09:39:16;;;;;;;;;;;;;;;22.60;29.68;98839.47;5090959;28;20449;-41
2023/04/02 09:41:41;;;;;;;;;;;;;;;22.95;28.52;98842.47;5091182;28;20319;-41
2023/04/02 09:44:23;;;;;;;;;;;;;;;23.29;27.76;98843.84;5091107;28;19916;-41
2023/04/02 09:46:58;;;;;;;;;;;;;;;23.41;27.57;98838.66;5089792;28;19922;-41
2023/04/02 09:49:25;;;;;;;;;;;;;;;23.40;27.04;98832.44;5090113;28;20380;-40
2023/04/02 09:52:09;;;;;;;;;;;;;;;23.99;26.70;98840.41;5089538;28;20268;-40
2023/04/02 09:54:40;;;;;;;;;;;;;;;23.23;26.74;98835.03;5089139;28;20135;-41
2023/04/02 09:57:15;;;;;;;;;;;;;;;23.64;26.61;98828.53;5089274;28;20091;-41
2023/04/02 09:59:41;;;;;;;;;;;;;;;24.69;25.20;98832.41;5089653;28;19919;-41
2023/04/02 10:02:28;;;;;;;;;;;;;;;24.16;25.88;98833.41;5089754;28;19912;-41
2023/04/02 10:04:53;;;;;;;;;;;;;;;24.00;26.40;98825.69;5089609;28;19912;-41
2023/04/02 10:07:47;;;;;;;;;;;;;;;23.83;24.64;98813.97;5089592;28;19912;-40
2023/04/02 10:10:20;;;;;;;;;;;;;;;23.32;25.16;98819.63;5080195;28;19916;-41
2023/04/02 10:12:47;;;;;;;;;;;;;;;23.09;25.71;98809.88;5089956;28;20007;-41
2023/04/02 10:15:15;;;;;;;;;;;;;;;23.47;25.04;98810.25;5090083;28;19923;-41
2023/04/02 10:17:42;;;;;;;;;;;;;;;23.34;24.98;98808.41;5089841;28;19919;-41
2023/04/02 10:20:16;;;;;;;;;;;;;;;23.40;24.40;98799.06;5089915;28;20327;-41
2023/04/02 10:22:42;;;;;;;;;;;;;;;23.36;24.36;98798.88;5089676;28;20011;-40
2023/04/02 10:25:14;;;;;;;;;;;;;;;24.05;23.41;98797.59;5090115;28;19974;-41
2023/04/02 10:27:52;;;;;;;;;;;;;;;25.06;22.99;98800.22;5089747;28;20491;-41
2023/04/02 10:30:27;;;;;;;;;;;;;;;25.11;22.57;98791.09;5089720;28;19921;-41
2023/04/02 10:33:02;;;;;;;;;;;;;;;24.61;23.23;98792.41;5089783;28;19919;-41
2023/04/02 10:35:42;;;;;;;;;;;;;;;24.97;22.80;98789.34;5090120;28;19916;-41
2023/04/02 10:38:17;;;;;;;;;;;;;;;24.82;22.29;98789.06;5089756;28;20249;-41
2023/04/02 10:40:48;;;;;;;;;;;;;;;25.05;22.13;98792.38;5089517;28;19919;-40
2023/04/02 10:43:13;;;;;;;;;;;;;;;25.17;22.04;98785.16;5090279;28;19958;-40
2023/04/02 10:45:48;;;;;;;;;;;;;;;24.86;22.26;98793.50;5090734;28;19951;-40
2023/04/02 10:48:16;;;;;;;;;;;;;;;24.64;22.83;98791.00;5090760;28;19970;-40
2023/04/02 10:50:53;;;;;;;;;;;;;;;24.47;23.04;98787.09;5090171;28;19920;-42
2023/04/02 10:53:20;;;;;;;;;;;;;;;25.01;22.42;98777.81;5090020;28;20370;-41
2023/04/02 10:56:07;;;;;;;;;;;;;;;24.83;22.94;98774.31;5090109;28;19992;-41
2023/04/02 10:58:36;;;;;;;;;;;;;;;25.96;22.01;98770.50;5089731;28;19995;-42
2023/04/02 11:01:08;;;;;;;;;;;;;;;26.27;22.34;98770.13;5088115;28;20010;-41
2023/04/02 11:03:36;;;;;;;;;;;;;;;25.53;21.60;98750.47;5088531;28;19969;-41
2023/04/02 11:06:04;;;;;;;;;;;;;;;25.27;21.03;98761.47;5088974;28;19916;-41
2023/04/02 11:08:46;;;;;;;;;;;;;;;24.88;21.21;98755.09;5089030;28;19919;-42
2023/04/02 11:11:17;;;;;;;;;;;;;;;24.57;22.93;98759.59;5089666;28;20387;-41
2023/04/02 11:13:43;;;;;;;;;;;;;;;24.88;21.63;98752.38;5089827;28;19912;-41
2023/04/02 11:16:11;;;;;;;;;;;;;;;25.52;21.77;98752.41;5090025;28;20297;-41
2023/04/02 11:18:37;;;;;;;;;;;;;;;25.49;21.46;98749.53;5090050;28;20123;-41
2023/04/02 11:21:21;;;;;;;;;;;;;;;24.97;21.68;98756.69;5089446;28;19917;-41
2023/04/02 11:23:57;;;;;;;;;;;;;;;24.87;22.16;98748.88;5088635;28;19977;-41
2023/04/02 11:26:31;;;;;;;;;;;;;;;25.34;21.59;98745.41;5087981;28;20533;-42
2023/04/02 11:29:15;;;;;;;;;;;;;;;25.67;21.76;98739.38;5086884;28;19916;-41
2023/04/02 11:31:41;;;;;;;;;;;;;;;25.18;21.90;98737.75;5087625;28;19916;-41
2023/04/02 11:34:11;;;;;;;;;;;;;;;25.33;21.76;98736.47;5088970;28;19924;-42
2023/04/02 11:36:49;;;;;;;;;;;;;;;24.62;21.88;98717.06;5089969;28;19912;-41
2023/04/02 11:39:34;;;;;;;;;;;;;;;24.66;22.70;98731.63;5089403;28;19985;-41
2023/04/02 11:42:01;;;;;;;;;;;;;;;25.34;22.19;98726.34;5089183;28;19912;-41
2023/04/02 11:44:27;;;;;;;;;;;;;;;26.19;21.75;98713.75;5089543;28;20364;-41
2023/04/02 11:47:12;;;;;;;;;;;;;;;25.30;22.45;98715.34;5088704;28;20012;-40
2023/04/02 11:49:38;;;;;;;;;;;;;;;24.75;22.97;98716.06;5089151;28;19969;-42
2023/04/02 11:52:17;;;;;;;;;;;;;;;24.84;22.32;98713.34;5089646;28;20027;-42
2023/04/02 11:54:43;;;;;;;;;;;;;;;25.48;22.14;98702.44;5089106;28;19920;-42
2023/04/02 11:57:29;;;;;;;;;;;;;;;25.62;21.46;98702.22;5092550;28;19912;-42
2023/04/02 11:59:57;;;;;;;;;;;;;;;25.03;23.38;98707.53;5092322;28;19923;-41
2023/04/02 12:02:27;;;;;;;;;;;;;;;25.14;22.35;98708.78;5092616;28;19996;-41
2023/04/02 12:04:52;;;;;;;;;;;;;;;26.07;21.80;98707.09;5093230;28;20023;-42
2023/04/02 12:07:18;;;;;;;;;;;;;;;26.47;21.24;98697.66;5092902;28;20339;-42
2023/04/02 12:09:43;;;;;;;;;;;;;;;26.85;20.70;98705.66;5092488;28;19924;-41
2023/04/02 12:12:35;;;;;;;;;;;;;;;26.90;20.42;98700.00;5092346;28;19912;-41
2023/04/02 12:15:01;;;;;;;;;;;;;;;26.16;21.19;98704.31;5090673;28;19912;-41
2023/04/02 12:17:29;;;;;;;;;;;;;;;26.04;21.74;98702.28;5092518;28;19934;-42
2023/04/02 12:20:00;;;;;;;;;;;;;;;26.41;21.61;98699.78;5092328;28;19969;-41
2023/04/02 12:22:30;;;;;;;;;;;;;;;26.05;21.64;98698.47;5092037;28;19967;-41
2023/04/02 12:25:00;;;;;;;;;;;;;;;26.11;21.64;98699.06;5091919;28;19928;-40
2023/04/02 12:27:27;;;;;;;;;;;;;;;25.99;22.36;98691.63;5092106;28;19920;-41
2023/04/02 12:29:53;;;;;;;;;;;;;;;26.15;21.26;98686.34;5091823;28;19923;-42
2023/04/02 12:32:28;;;;;;;;;;;;;;;26.28;21.81;98696.19;5092349;28;19916;-42
2023/04/02 12:34:54;;;;;;;;;;;;;;;26.36;21.64;98694.53;5091966;28;20360;-40
2023/04/02 12:37:29;;;;;;;;;;;;;;;26.42;21.28;98698.63;5092012;28;19927;-40
2023/04/02 12:40:01;;;;;;;;;;;;;;;26.28;21.29;98700.84;5091674;28;19992;-41
2023/04/02 12:42:36;;;;;;;;;;;;;;;26.42;21.20;98687.72;5091961;28;19919;-41
2023/04/02 12:45:02;;;;;;;;;;;;;;;25.96;21.12;98694.19;5091356;28;20394;-41
2023/04/02 12:47:28;;;;;;;;;;;;;;;25.90;21.43;98685.38;5091695;28;20033;-41
2023/04/02 12:49:55;;;;;;;;;;;;;;;26.22;21.04;98685.84;5091534;28;19950;-41
2023/04/02 12:52:21;;;;;;;;;;;;;;;26.18;21.44;98684.88;5092043;28;19912;-42
2023/04/02 12:54:52;;;;;;;;;;;;;;;26.45;21.12;98694.47;5091957;28;19912;-42
2023/04/02 12:57:22;;;;;;;;;;;;;;;26.14;21.51;98684.75;5092081;28;19916;-42
2023/04/02 12:59:47;;;;;;;;;;;;;;;26.09;21.63;98685.75;5091839;28;20631;-41
2023/04/02 13:02:20;;;;;;;;;;;;;;;26.18;21.76;98684.88;5091545;28;19912;-41
2023/04/02 13:04:49;;;;;;;;;;;;;;;26.87;20.98;98680.75;5091594;28;19916;-42